sensor_id;sensor_type;location;lat;lon;timestamp;temperature;humidity
47765;DHT22;33529;49.242;8.670;2023-04-19T00:00:12;10.10;99.90
47765;DHT22;33529;49.242;8.670;2023-04-19T00:02:40;10.10;99.90
47765;DHT22;33529;49.242;8.670;2023-04-19T00:05:08;10.10;99.90
47765;DHT22;33529;49.242;8.670;2023-04-19T00:07:37;10.10;99.90
47765;DHT22;33529;49.242;8.670;2023-04-19T00:10:05;10.00;99.90
47765;DHT22;33529;49.242;8.670;2023-04-19T00:12:32;10.10;99.90
47765;DHT22;33529;49.242;8.670;2023-04-19T00:15:00;10.10;99.90
47765;DHT22;33529;49.242;8.670;2023-04-19T00:17:27;10.00;99.90
47765;DHT22;33529;49.242;8.670;2023-04-19T00:19:54;10.00;99.90
47765;DHT22;33529;49.242;8.670;2023-04-19T00:22:22;10.00;99.90
47765;DHT22;33529;49.242;8.670;2023-04-19T00:24:49;10.00;99.90
47765;DHT22;33529;49.242;8.670;2023-04-19T00:27:16;10.00;99.90
47765;DHT22;33529;49.242;8.670;2023-04-19T00:29:43;10.00;99.90
47765;DHT22;33529;49.242;8.670;2023-04-19T00:32:10;10.00;99.90
47765;DHT22;33529;49.242;8.670;2023-04-19T00:34:37;10.00;99.90
47765;DHT22;33529;49.242;8.670;2023-04-19T00:37:03;10.00;99.90
47765;DHT22;33529;49.242;8.670;2023-04-19T00:39:31;10.00;99.90
47765;DHT22;33529;49.242;8.670;2023-04-19T00:41:58;10.00;99.90
47765;DHT22;33529;49.242;8.670;2023-04-19T00:44:25;10.00;99.90
47765;DHT22;33529;49.242;8.670;2023-04-19T00:46:54;9.90;99.90
47765;DHT22;33529;49.242;8.670;2023-04-19T00:49:22;9.90;99.90
47765;DHT22;33529;49.242;8.670;2023-04-19T00:51:50;9.90;99.90
47765;DHT22;33529;49.242;8.670;2023-04-19T00:54:18;9.90;99.90
47765;DHT22;33529;49.242;8.670;2023-04-19T00:56:47;9.90;99.90
47765;DHT22;33529;49.242;8.670;2023-04-19T00:59:16;9.90;99.90
47765;DHT22;33529;49.242;8.670;2023-04-19T01:01:44;9.90;99.90
47765;DHT22;33529;49.242;8.670;2023-04-19T01:04:11;9.90;99.90
47765;DHT22;33529;49.242;8.670;2023-04-19T01:06:39;9.90;99.90
47765;DHT22;33529;49.242;8.670;2023-04-19T01:09:09;9.80;99.90
47765;DHT22;33529;49.242;8.670;2023-04-19T01:11:39;9.80;99.90
47765;DHT22;33529;49.242;8.670;2023-04-19T01:14:09;9.90;99.90
47765;DHT22;33529;49.242;8.670;2023-04-19T01:16:38;9.90;99.90
47765;DHT22;33529;49.242;8.670;2023-04-19T01:19:05;9.80;99.90
47765;DHT22;33529;49.242;8.670;2023-04-19T01:21:32;9.70;99.90
47765;DHT22;33529;49.242;8.670;2023-04-19T01:23:58;9.70;99.90
47765;DHT22;33529;49.242;8.670;2023-04-19T01:26:28;9.80;99.90
47765;DHT22;33529;49.242;8.670;2023-04-19T01:28:55;9.80;99.90
47765;DHT22;33529;49.242;8.670;2023-04-19T01:31:21;9.80;99.90
47765;DHT22;33529;49.242;8.670;2023-04-19T01:33:48;9.80;99.90
47765;DHT22;33529;49.242;8.670;2023-04-19T01:36:15;9.70;99.90
47765;DHT22;33529;49.242;8.670;2023-04-19T01:38:42;9.80;99.90
47765;DHT22;33529;49.242;8.670;2023-04-19T01:41:09;9.80;99.90
47765;DHT22;33529;49.242;8.670;2023-04-19T01:43:36;9.70;99.90
47765;DHT22;33529;49.242;8.670;2023-04-19T01:46:03;9.70;99.90
47765;DHT22;33529;49.242;8.670;2023-04-19T01:48:30;9.80;99.90
47765;DHT22;33529;49.242;8.670;2023-04-19T01:50:56;9.80;99.90
47765;DHT22;33529;49.242;8.670;2023-04-19T01:53:23;9.80;99.90
47765;DHT22;33529;49.242;8.670;2023-04-19T01:55:50;9.70;99.90
47765;DHT22;33529;49.242;8.670;2023-04-19T01:58:19;9.80;99.90
47765;DHT22;33529;49.242;8.670;2023-04-19T02:00:46;9.80;99.90
47765;DHT22;33529;49.242;8.670;2023-04-19T02:03:15;9.80;99.90
47765;DHT22;33529;49.242;8.670;2023-04-19T02:05:42;9.80;99.90
47765;DHT22;33529;49.242;8.670;2023-04-19T02:08:09;9.70;99.90
47765;DHT22;33529;49.242;8.670;2023-04-19T02:10:36;9.80;99.90
47765;DHT22;33529;49.242;8.670;2023-04-19T02:13:03;9.70;99.90
47765;DHT22;33529;49.242;8.670;2023-04-19T02:15:29;9.80;99.90
47765;DHT22;33529;49.242;8.670;2023-04-19T02:17:56;9.80;99.90
47765;DHT22;33529;49.242;8.670;2023-04-19T02:20:25;9.70;99.90
47765;DHT22;33529;49.242;8.670;2023-04-19T02:22:53;9.70;99.90
47765;DHT22;33529;49.242;8.670;2023-04-19T02:25:19;9.70;99.90
47765;DHT22;33529;49.242;8.670;2023-04-19T02:27:47;9.70;99.90
47765;DHT22;33529;49.242;8.670;2023-04-19T02:30:16;9.70;99.90
47765;DHT22;33529;49.242;8.670;2023-04-19T02:32:43;9.60;99.90
47765;DHT22;33529;49.242;8.670;2023-04-19T02:35:11;9.70;99.90
47765;DHT22;33529;49.242;8.670;2023-04-19T02:37:38;9.60;99.90
47765;DHT22;33529;49.242;8.670;2023-04-19T02:40:06;9.70;99.90
47765;DHT22;33529;49.242;8.670;2023-04-19T02:42:33;9.70;99.90
47765;DHT22;33529;49.242;8.670;2023-04-19T02:45:00;9.70;99.90
47765;DHT22;33529;49.242;8.670;2023-04-19T02:47:27;9.60;99.90
47765;DHT22;33529;49.242;8.670;2023-04-19T02:49:53;9.60;99.90
47765;DHT22;33529;49.242;8.670;2023-04-19T02:52:21;9.60;99.90
47765;DHT22;33529;49.242;8.670;2023-04-19T02:54:47;9.60;99.90
47765;DHT22;33529;49.242;8.670;2023-04-19T02:57:14;9.60;99.90
47765;DHT22;33529;49.242;8.670;2023-04-19T02:59:42;9.60;99.90
47765;DHT22;33529;49.242;8.670;2023-04-19T03:02:09;9.60;99.90
47765;DHT22;33529;49.242;8.670;2023-04-19T03:04:36;9.60;99.90
47765;DHT22;33529;49.242;8.670;2023-04-19T03:07:03;9.60;99.90
47765;DHT22;33529;49.242;8.670;2023-04-19T03:09:32;9.60;99.90
47765;DHT22;33529;49.242;8.670;2023-04-19T03:11:59;9.60;99.90
47765;DHT22;33529;49.242;8.670;2023-04-19T03:14:27;9.60;99.90
47765;DHT22;33529;49.242;8.670;2023-04-19T03:16:54;9.60;99.90
47765;DHT22;33529;49.242;8.670;2023-04-19T03:19:21;9.60;99.90
47765;DHT22;33529;49.242;8.670;2023-04-19T03:21:50;9.60;99.90
47765;DHT22;33529;49.242;8.670;2023-04-19T03:24:19;9.60;99.90
47765;DHT22;33529;49.242;8.670;2023-04-19T03:26:52;9.60;99.90
47765;DHT22;33529;49.242;8.670;2023-04-19T03:29:23;9.60;99.90
47765;DHT22;33529;49.242;8.670;2023-04-19T03:32:03;9.60;99.90
47765;DHT22;33529;49.242;8.670;2023-04-19T03:34:30;9.60;99.90
47765;DHT22;33529;49.242;8.670;2023-04-19T03:36:58;9.60;99.90
47765;DHT22;33529;49.242;8.670;2023-04-19T03:39:25;9.60;99.90
47765;DHT22;33529;49.242;8.670;2023-04-19T03:41:57;9.50;99.90
47765;DHT22;33529;49.242;8.670;2023-04-19T03:44:34;9.50;99.90
47765;DHT22;33529;49.242;8.670;2023-04-19T03:47:03;9.50;99.90
47765;DHT22;33529;49.242;8.670;2023-04-19T03:49:36;9.50;99.90
47765;DHT22;33529;49.242;8.670;2023-04-19T03:52:04;9.50;99.90
47765;DHT22;33529;49.242;8.670;2023-04-19T03:54:32;9.40;99.90
47765;DHT22;33529;49.242;8.670;2023-04-19T03:57:00;9.50;99.90
47765;DHT22;33529;49.242;8.670;2023-04-19T03:59:27;9.50;99.90
47765;DHT22;33529;49.242;8.670;2023-04-19T04:01:56;9.50;99.90
47765;DHT22;33529;49.242;8.670;2023-04-19T04:04:23;9.40;99.90
47765;DHT22;33529;49.242;8.670;2023-04-19T04:06:50;9.40;99.90
47765;DHT22;33529;49.242;8.670;2023-04-19T04:09:17;9.40;99.90
47765;DHT22;33529;49.242;8.670;2023-04-19T04:11:44;9.40;99.90
47765;DHT22;33529;49.242;8.670;2023-04-19T04:14:11;9.30;99.90
47765;DHT22;33529;49.242;8.670;2023-04-19T04:16:39;9.30;99.90
47765;DHT22;33529;49.242;8.670;2023-04-19T04:19:07;9.30;99.90
47765;DHT22;33529;49.242;8.670;2023-04-19T04:21:39;9.20;99.90
47765;DHT22;33529;49.242;8.670;2023-04-19T04:24:06;9.20;99.90
47765;DHT22;33529;49.242;8.670;2023-04-19T04:26:44;9.20;99.90
47765;DHT22;33529;49.242;8.670;2023-04-19T04:29:19;9.10;99.90
47765;DHT22;33529;49.242;8.670;2023-04-19T04:31:48;9.10;99.90
47765;DHT22;33529;49.242;8.670;2023-04-19T04:34:17;9.00;99.90
47765;DHT22;33529;49.242;8.670;2023-04-19T04:36:50;9.00;99.90
47765;DHT22;33529;49.242;8.670;2023-04-19T04:39:19;9.00;99.90
47765;DHT22;33529;49.242;8.670;2023-04-19T04:41:47;8.90;99.90
47765;DHT22;33529;49.242;8.670;2023-04-19T04:44:15;9.00;99.90
47765;DHT22;33529;49.242;8.670;2023-04-19T04:46:43;9.00;99.90
47765;DHT22;33529;49.242;8.670;2023-04-19T04:49:14;8.90;99.90
47765;DHT22;33529;49.242;8.670;2023-04-19T04:51:41;8.90;99.90
47765;DHT22;33529;49.242;8.670;2023-04-19T04:54:09;8.90;99.90
47765;DHT22;33529;49.242;8.670;2023-04-19T04:56:36;8.90;99.90
47765;DHT22;33529;49.242;8.670;2023-04-19T04:59:03;8.80;99.90
47765;DHT22;33529;49.242;8.670;2023-04-19T05:01:35;8.80;99.90
47765;DHT22;33529;49.242;8.670;2023-04-19T05:04:03;8.80;99.90
47765;DHT22;33529;49.242;8.670;2023-04-19T05:06:31;8.70;99.90
47765;DHT22;33529;49.242;8.670;2023-04-19T05:09:07;8.70;99.90
47765;DHT22;33529;49.242;8.670;2023-04-19T05:12:33;8.70;99.90
47765;DHT22;33529;49.242;8.670;2023-04-19T05:24:31;8.80;99.90
47765;DHT22;33529;49.242;8.670;2023-04-19T05:27:51;8.80;99.90
47765;DHT22;33529;49.242;8.670;2023-04-19T05:30:53;8.90;99.90
47765;DHT22;33529;49.242;8.670;2023-04-19T05:37:07;9.10;99.90
47765;DHT22;33529;49.242;8.670;2023-04-19T05:40:24;9.20;99.90
47765;DHT22;33529;49.242;8.670;2023-04-19T05:43:37;9.20;99.90
47765;DHT22;33529;49.242;8.670;2023-04-19T05:46:22;9.30;99.90
47765;DHT22;33529;49.242;8.670;2023-04-19T05:48:53;9.40;99.90
47765;DHT22;33529;49.242;8.670;2023-04-19T05:51:26;9.40;99.90
47765;DHT22;33529;49.242;8.670;2023-04-19T05:54:03;9.50;99.90
47765;DHT22;33529;49.242;8.670;2023-04-19T05:56:30;9.50;99.90
47765;DHT22;33529;49.242;8.670;2023-04-19T05:58:57;9.60;99.90
47765;DHT22;33529;49.242;8.670;2023-04-19T06:01:23;9.70;99.90
47765;DHT22;33529;49.242;8.670;2023-04-19T06:03:50;9.80;99.90
47765;DHT22;33529;49.242;8.670;2023-04-19T06:06:23;9.90;99.90
47765;DHT22;33529;49.242;8.670;2023-04-19T06:08:50;10.00;99.90
47765;DHT22;33529;49.242;8.670;2023-04-19T06:11:23;10.00;99.90
47765;DHT22;33529;49.242;8.670;2023-04-19T06:14:04;10.10;99.90
47765;DHT22;33529;49.242;8.670;2023-04-19T06:16:31;10.20;99.90
47765;DHT22;33529;49.242;8.670;2023-04-19T06:18:59;10.20;99.90
47765;DHT22;33529;49.242;8.670;2023-04-19T06:21:29;10.40;99.90
47765;DHT22;33529;49.242;8.670;2023-04-19T06:23:57;10.40;99.90
47765;DHT22;33529;49.242;8.670;2023-04-19T06:26:23;10.40;99.90
47765;DHT22;33529;49.242;8.670;2023-04-19T06:28:50;10.40;99.90
47765;DHT22;33529;49.242;8.670;2023-04-19T06:31:17;10.60;99.90
47765;DHT22;33529;49.242;8.670;2023-04-19T06:33:44;10.80;99.90
47765;DHT22;33529;49.242;8.670;2023-04-19T06:36:11;10.70;99.90
47765;DHT22;33529;49.242;8.670;2023-04-19T06:38:38;10.90;99.90
47765;DHT22;33529;49.242;8.670;2023-04-19T06:41:09;10.90;99.90
47765;DHT22;33529;49.242;8.670;2023-04-19T06:43:36;10.90;99.90
47765;DHT22;33529;49.242;8.670;2023-04-19T06:46:03;11.10;99.90
47765;DHT22;33529;49.242;8.670;2023-04-19T06:48:30;11.30;99.90
47765;DHT22;33529;49.242;8.670;2023-04-19T06:50:57;11.50;99.90
47765;DHT22;33529;49.242;8.670;2023-04-19T06:53:23;11.40;99.90
47765;DHT22;33529;49.242;8.670;2023-04-19T06:55:59;11.40;99.90
47765;DHT22;33529;49.242;8.670;2023-04-19T06:58:27;11.60;99.90
47765;DHT22;33529;49.242;8.670;2023-04-19T07:00:58;11.40;99.90
47765;DHT22;33529;49.242;8.670;2023-04-19T07:03:25;11.60;99.90
47765;DHT22;33529;49.242;8.670;2023-04-19T07:05:53;11.70;99.90
47765;DHT22;33529;49.242;8.670;2023-04-19T07:08:25;11.90;99.90
47765;DHT22;33529;49.242;8.670;2023-04-19T07:11:08;12.10;99.90
47765;DHT22;33529;49.242;8.670;2023-04-19T07:13:35;12.30;99.90
47765;DHT22;33529;49.242;8.670;2023-04-19T07:16:04;12.60;99.90
47765;DHT22;33529;49.242;8.670;2023-04-19T07:18:33;12.80;99.90
47765;DHT22;33529;49.242;8.670;2023-04-19T07:20:59;12.80;99.90
47765;DHT22;33529;49.242;8.670;2023-04-19T07:23:26;12.80;99.90
47765;DHT22;33529;49.242;8.670;2023-04-19T07:26:00;12.70;99.90
47765;DHT22;33529;49.242;8.670;2023-04-19T07:28:28;13.00;99.90
47765;DHT22;33529;49.242;8.670;2023-04-19T07:30:55;13.20;99.90
47765;DHT22;33529;49.242;8.670;2023-04-19T07:33:23;13.60;99.90
47765;DHT22;33529;49.242;8.670;2023-04-19T07:35:56;13.90;99.90
47765;DHT22;33529;49.242;8.670;2023-04-19T07:38:23;14.20;99.90
47765;DHT22;33529;49.242;8.670;2023-04-19T07:40:50;14.20;99.90
47765;DHT22;33529;49.242;8.670;2023-04-19T07:43:17;14.20;99.90
47765;DHT22;33529;49.242;8.670;2023-04-19T07:45:44;14.40;99.90
47765;DHT22;33529;49.242;8.670;2023-04-19T07:48:11;14.20;99.90
47765;DHT22;33529;49.242;8.670;2023-04-19T07:50:38;14.00;99.90
47765;DHT22;33529;49.242;8.670;2023-04-19T07:53:05;14.00;99.90
47765;DHT22;33529;49.242;8.670;2023-04-19T07:55:32;14.30;99.90
47765;DHT22;33529;49.242;8.670;2023-04-19T07:58:00;14.30;99.90
47765;DHT22;33529;49.242;8.670;2023-04-19T08:00:27;14.10;99.90
47765;DHT22;33529;49.242;8.670;2023-04-19T08:02:55;14.40;99.90
47765;DHT22;33529;49.242;8.670;2023-04-19T08:05:23;14.40;99.90
47765;DHT22;33529;49.242;8.670;2023-04-19T08:07:51;14.10;99.90
47765;DHT22;33529;49.242;8.670;2023-04-19T08:10:19;13.70;99.90
47765;DHT22;33529;49.242;8.670;2023-04-19T08:12:48;13.40;99.90
47765;DHT22;33529;49.242;8.670;2023-04-19T08:15:32;13.40;99.90
47765;DHT22;33529;49.242;8.670;2023-04-19T08:18:02;13.30;99.90
47765;DHT22;33529;49.242;8.670;2023-04-19T08:20:31;13.40;99.90
47765;DHT22;33529;49.242;8.670;2023-04-19T08:23:00;13.70;99.90
47765;DHT22;33529;49.242;8.670;2023-04-19T08:25:47;13.60;99.90
47765;DHT22;33529;49.242;8.670;2023-04-19T08:28:15;13.70;99.90
47765;DHT22;33529;49.242;8.670;2023-04-19T08:30:42;13.80;99.90
47765;DHT22;33529;49.242;8.670;2023-04-19T08:33:09;13.60;99.90
47765;DHT22;33529;49.242;8.670;2023-04-19T08:35:40;13.50;99.90
47765;DHT22;33529;49.242;8.670;2023-04-19T08:38:08;13.30;99.90
47765;DHT22;33529;49.242;8.670;2023-04-19T08:40:42;13.20;99.90
47765;DHT22;33529;49.242;8.670;2023-04-19T08:43:11;13.10;99.90
47765;DHT22;33529;49.242;8.670;2023-04-19T08:45:38;13.10;99.90
47765;DHT22;33529;49.242;8.670;2023-04-19T08:48:07;13.00;99.90
47765;DHT22;33529;49.242;8.670;2023-04-19T08:50:40;13.10;99.90
47765;DHT22;33529;49.242;8.670;2023-04-19T08:53:11;13.10;99.90
47765;DHT22;33529;49.242;8.670;2023-04-19T08:55:42;13.00;99.90
47765;DHT22;33529;49.242;8.670;2023-04-19T08:58:29;13.00;99.90
47765;DHT22;33529;49.242;8.670;2023-04-19T09:01:03;13.20;99.90
47765;DHT22;33529;49.242;8.670;2023-04-19T09:03:30;13.30;99.90
47765;DHT22;33529;49.242;8.670;2023-04-19T09:06:09;13.30;99.90
47765;DHT22;33529;49.242;8.670;2023-04-19T09:08:38;13.30;99.90
47765;DHT22;33529;49.242;8.670;2023-04-19T09:11:06;13.40;99.90
47765;DHT22;33529;49.242;8.670;2023-04-19T09:13:33;13.40;99.90
47765;DHT22;33529;49.242;8.670;2023-04-19T09:16:04;13.50;99.90
47765;DHT22;33529;49.242;8.670;2023-04-19T09:18:55;13.60;99.90
47765;DHT22;33529;49.242;8.670;2023-04-19T09:21:34;13.60;99.90
47765;DHT22;33529;49.242;8.670;2023-04-19T09:24:02;13.40;99.90
47765;DHT22;33529;49.242;8.670;2023-04-19T09:26:29;13.60;99.90
47765;DHT22;33529;49.242;8.670;2023-04-19T09:29:06;13.90;99.90
47765;DHT22;33529;49.242;8.670;2023-04-19T09:31:35;14.10;99.90
47765;DHT22;33529;49.242;8.670;2023-04-19T09:34:18;14.10;99.90
47765;DHT22;33529;49.242;8.670;2023-04-19T09:36:45;14.30;99.90
47765;DHT22;33529;49.242;8.670;2023-04-19T09:39:12;14.60;99.90
47765;DHT22;33529;49.242;8.670;2023-04-19T09:41:53;14.80;99.90
47765;DHT22;33529;49.242;8.670;2023-04-19T09:44:23;14.90;99.90
47765;DHT22;33529;49.242;8.670;2023-04-19T09:46:52;15.40;99.90
47765;DHT22;33529;49.242;8.670;2023-04-19T09:49:23;15.50;99.90
47765;DHT22;33529;49.242;8.670;2023-04-19T09:52:13;15.40;99.90
47765;DHT22;33529;49.242;8.670;2023-04-19T09:54:40;15.50;99.90
47765;DHT22;33529;49.242;8.670;2023-04-19T09:57:07;15.50;99.90
47765;DHT22;33529;49.242;8.670;2023-04-19T09:59:34;15.50;99.90
47765;DHT22;33529;49.242;8.670;2023-04-19T10:02:01;15.40;99.90
47765;DHT22;33529;49.242;8.670;2023-04-19T10:04:31;15.10;99.90
47765;DHT22;33529;49.242;8.670;2023-04-19T10:07:19;15.20;99.90
47765;DHT22;33529;49.242;8.670;2023-04-19T10:09:50;15.30;99.90
47765;DHT22;33529;49.242;8.670;2023-04-19T10:12:24;15.30;99.90
47765;DHT22;33529;49.242;8.670;2023-04-19T10:14:55;14.90;99.90
47765;DHT22;33529;49.242;8.670;2023-04-19T10:17:25;14.60;99.90
47765;DHT22;33529;49.242;8.670;2023-04-19T10:20:00;14.50;99.90
47765;DHT22;33529;49.242;8.670;2023-04-19T10:22:34;14.60;99.90
47765;DHT22;33529;49.242;8.670;2023-04-19T10:25:07;14.70;99.90
47765;DHT22;33529;49.242;8.670;2023-04-19T10:27:35;14.70;99.90
47765;DHT22;33529;49.242;8.670;2023-04-19T10:30:05;14.60;99.90
47765;DHT22;33529;49.242;8.670;2023-04-19T10:32:38;14.40;99.90
47765;DHT22;33529;49.242;8.670;2023-04-19T10:35:09;14.10;99.90
47765;DHT22;33529;49.242;8.670;2023-04-19T10:37:39;14.00;99.90
47765;DHT22;33529;49.242;8.670;2023-04-19T10:40:08;13.80;99.90
47765;DHT22;33529;49.242;8.670;2023-04-19T10:43:13;13.80;99.90
47765;DHT22;33529;49.242;8.670;2023-04-19T10:45:40;13.70;99.90
47765;DHT22;33529;49.242;8.670;2023-04-19T10:51:00;13.40;99.90
47765;DHT22;33529;49.242;8.670;2023-04-19T10:56:14;13.10;99.90
47765;DHT22;33529;49.242;8.670;2023-04-19T11:04:20;12.70;99.90
47765;DHT22;33529;49.242;8.670;2023-04-19T11:09:44;12.70;99.90
47765;DHT22;33529;49.242;8.670;2023-04-19T11:12:16;12.60;99.90
47765;DHT22;33529;49.242;8.670;2023-04-19T11:14:45;12.60;99.90
47765;DHT22;33529;49.242;8.670;2023-04-19T11:17:16;12.50;99.90
47765;DHT22;33529;49.242;8.670;2023-04-19T11:20:05;12.30;99.90
47765;DHT22;33529;49.242;8.670;2023-04-19T11:22:36;12.30;99.90
47765;DHT22;33529;49.242;8.670;2023-04-19T11:25:07;12.20;99.90
47765;DHT22;33529;49.242;8.670;2023-04-19T11:27:35;12.20;99.90
47765;DHT22;33529;49.242;8.670;2023-04-19T11:30:05;12.10;99.90
47765;DHT22;33529;49.242;8.670;2023-04-19T11:32:33;12.00;99.90
47765;DHT22;33529;49.242;8.670;2023-04-19T11:35:04;12.00;99.90
47765;DHT22;33529;49.242;8.670;2023-04-19T11:37:32;12.10;99.90
47765;DHT22;33529;49.242;8.670;2023-04-19T11:40:02;12.10;99.90
47765;DHT22;33529;49.242;8.670;2023-04-19T11:42:31;12.20;99.90
47765;DHT22;33529;49.242;8.670;2023-04-19T11:44:58;12.20;99.90
47765;DHT22;33529;49.242;8.670;2023-04-19T11:47:26;12.30;99.90
47765;DHT22;33529;49.242;8.670;2023-04-19T11:49:56;12.30;99.90
47765;DHT22;33529;49.242;8.670;2023-04-19T11:52:24;12.30;99.90
47765;DHT22;33529;49.242;8.670;2023-04-19T11:54:52;12.30;99.90
47765;DHT22;33529;49.242;8.670;2023-04-19T11:57:27;12.20;99.90
47765;DHT22;33529;49.242;8.670;2023-04-19T12:00:07;12.10;99.90
47765;DHT22;33529;49.242;8.670;2023-04-19T12:02:40;12.00;99.90
47765;DHT22;33529;49.242;8.670;2023-04-19T12:05:14;12.00;99.90
47765;DHT22;33529;49.242;8.670;2023-04-19T12:08:06;11.90;99.90
47765;DHT22;33529;49.242;8.670;2023-04-19T12:10:34;11.90;99.90
47765;DHT22;33529;49.242;8.670;2023-04-19T12:13:16;11.90;99.90
47765;DHT22;33529;49.242;8.670;2023-04-19T12:15:44;11.90;99.90
47765;DHT22;33529;49.242;8.670;2023-04-19T12:18:11;11.90;99.90
47765;DHT22;33529;49.242;8.670;2023-04-19T12:20:44;12.00;99.90
47765;DHT22;33529;49.242;8.670;2023-04-19T12:23:12;12.00;99.90
47765;DHT22;33529;49.242;8.670;2023-04-19T12:25:44;12.10;99.90
47765;DHT22;33529;49.242;8.670;2023-04-19T12:28:15;11.90;99.90
47765;DHT22;33529;49.242;8.670;2023-04-19T12:30:42;11.80;99.90
47765;DHT22;33529;49.242;8.670;2023-04-19T12:33:12;11.60;99.90
47765;DHT22;33529;49.242;8.670;2023-04-19T12:35:39;11.50;99.90
47765;DHT22;33529;49.242;8.670;2023-04-19T12:38:06;11.50;99.90
47765;DHT22;33529;49.242;8.670;2023-04-19T12:40:34;11.50;99.90
47765;DHT22;33529;49.242;8.670;2023-04-19T12:43:01;11.50;99.90
47765;DHT22;33529;49.242;8.670;2023-04-19T12:45:28;11.50;99.90
47765;DHT22;33529;49.242;8.670;2023-04-19T12:47:55;11.70;99.90
47765;DHT22;33529;49.242;8.670;2023-04-19T12:50:22;12.00;99.90
47765;DHT22;33529;49.242;8.670;2023-04-19T12:52:49;12.30;99.90
47765;DHT22;33529;49.242;8.670;2023-04-19T12:55:17;12.60;99.90
47765;DHT22;33529;49.242;8.670;2023-04-19T12:57:44;12.80;99.90
47765;DHT22;33529;49.242;8.670;2023-04-19T13:00:12;13.20;99.90
47765;DHT22;33529;49.242;8.670;2023-04-19T13:02:39;13.30;99.90
47765;DHT22;33529;49.242;8.670;2023-04-19T13:05:06;13.40;99.90
47765;DHT22;33529;49.242;8.670;2023-04-19T13:07:33;13.50;99.90
47765;DHT22;33529;49.242;8.670;2023-04-19T13:10:00;13.90;99.90
47765;DHT22;33529;49.242;8.670;2023-04-19T13:12:27;14.20;99.90
47765;DHT22;33529;49.242;8.670;2023-04-19T13:14:54;14.40;99.90
47765;DHT22;33529;49.242;8.670;2023-04-19T13:17:21;14.60;99.90
47765;DHT22;33529;49.242;8.670;2023-04-19T13:19:47;14.70;99.90
47765;DHT22;33529;49.242;8.670;2023-04-19T13:22:17;14.80;99.90
47765;DHT22;33529;49.242;8.670;2023-04-19T13:24:44;15.00;99.90
47765;DHT22;33529;49.242;8.670;2023-04-19T13:27:11;15.30;99.90
47765;DHT22;33529;49.242;8.670;2023-04-19T13:29:40;15.60;99.90
47765;DHT22;33529;49.242;8.670;2023-04-19T13:32:08;15.80;99.90
47765;DHT22;33529;49.242;8.670;2023-04-19T13:34:38;15.80;99.90
47765;DHT22;33529;49.242;8.670;2023-04-19T13:37:08;15.70;99.90
47765;DHT22;33529;49.242;8.670;2023-04-19T13:39:36;15.30;99.90
47765;DHT22;33529;49.242;8.670;2023-04-19T13:42:02;14.80;99.90
47765;DHT22;33529;49.242;8.670;2023-04-19T13:44:29;14.80;99.90
47765;DHT22;33529;49.242;8.670;2023-04-19T13:46:56;14.80;99.90
47765;DHT22;33529;49.242;8.670;2023-04-19T13:49:23;14.90;99.90
47765;DHT22;33529;49.242;8.670;2023-04-19T13:51:50;14.80;99.90
47765;DHT22;33529;49.242;8.670;2023-04-19T13:54:17;15.00;99.90
47765;DHT22;33529;49.242;8.670;2023-04-19T13:56:46;15.20;99.90
47765;DHT22;33529;49.242;8.670;2023-04-19T13:59:17;15.40;99.90
47765;DHT22;33529;49.242;8.670;2023-04-19T14:01:44;15.80;99.90
47765;DHT22;33529;49.242;8.670;2023-04-19T14:04:14;15.80;99.90
47765;DHT22;33529;49.242;8.670;2023-04-19T14:06:44;15.90;99.90
47765;DHT22;33529;49.242;8.670;2023-04-19T14:09:11;15.90;99.90
47765;DHT22;33529;49.242;8.670;2023-04-19T14:11:38;16.30;99.90
47765;DHT22;33529;49.242;8.670;2023-04-19T14:14:07;16.50;99.90
47765;DHT22;33529;49.242;8.670;2023-04-19T14:16:33;16.50;99.90
47765;DHT22;33529;49.242;8.670;2023-04-19T14:19:00;16.30;99.90
47765;DHT22;33529;49.242;8.670;2023-04-19T14:21:28;16.10;99.90
47765;DHT22;33529;49.242;8.670;2023-04-19T14:23:55;15.90;99.90
47765;DHT22;33529;49.242;8.670;2023-04-19T14:26:22;15.70;99.90
47765;DHT22;33529;49.242;8.670;2023-04-19T14:28:51;15.80;99.90
47765;DHT22;33529;49.242;8.670;2023-04-19T14:31:20;16.10;99.90
47765;DHT22;33529;49.242;8.670;2023-04-19T14:33:47;16.20;99.90
47765;DHT22;33529;49.242;8.670;2023-04-19T14:36:14;16.30;99.90
47765;DHT22;33529;49.242;8.670;2023-04-19T14:38:41;16.40;99.90
47765;DHT22;33529;49.242;8.670;2023-04-19T14:41:08;16.50;99.90
47765;DHT22;33529;49.242;8.670;2023-04-19T14:43:34;16.30;99.90
47765;DHT22;33529;49.242;8.670;2023-04-19T14:46:01;16.10;99.90
47765;DHT22;33529;49.242;8.670;2023-04-19T14:48:28;16.00;99.90
47765;DHT22;33529;49.242;8.670;2023-04-19T14:50:55;15.80;99.90
47765;DHT22;33529;49.242;8.670;2023-04-19T14:53:22;15.40;99.90
47765;DHT22;33529;49.242;8.670;2023-04-19T14:55:48;14.80;99.90
47765;DHT22;33529;49.242;8.670;2023-04-19T14:58:15;14.10;99.90
47765;DHT22;33529;49.242;8.670;2023-04-19T15:00:43;13.30;99.90
47765;DHT22;33529;49.242;8.670;2023-04-19T15:03:10;12.80;99.90
47765;DHT22;33529;49.242;8.670;2023-04-19T15:05:39;12.20;99.90
47765;DHT22;33529;49.242;8.670;2023-04-19T15:08:06;11.60;99.90
47765;DHT22;33529;49.242;8.670;2023-04-19T15:10:43;11.30;99.90
47765;DHT22;33529;49.242;8.670;2023-04-19T15:13:10;11.20;99.90
47765;DHT22;33529;49.242;8.670;2023-04-19T15:15:37;11.10;99.90
47765;DHT22;33529;49.242;8.670;2023-04-19T15:18:04;10.90;99.90
47765;DHT22;33529;49.242;8.670;2023-04-19T15:20:31;10.80;99.90
47765;DHT22;33529;49.242;8.670;2023-04-19T15:22:58;10.70;99.90
47765;DHT22;33529;49.242;8.670;2023-04-19T15:25:25;10.80;99.90
47765;DHT22;33529;49.242;8.670;2023-04-19T15:27:52;10.90;99.90
47765;DHT22;33529;49.242;8.670;2023-04-19T15:30:19;11.10;99.90
47765;DHT22;33529;49.242;8.670;2023-04-19T15:32:46;11.50;99.90
47765;DHT22;33529;49.242;8.670;2023-04-19T15:35:13;12.00;99.90
47765;DHT22;33529;49.242;8.670;2023-04-19T15:37:40;13.60;99.90
47765;DHT22;33529;49.242;8.670;2023-04-19T15:40:09;15.60;99.90
47765;DHT22;33529;49.242;8.670;2023-04-19T15:42:38;18.00;99.90
47765;DHT22;33529;49.242;8.670;2023-04-19T15:45:05;20.00;99.90
47765;DHT22;33529;49.242;8.670;2023-04-19T15:47:33;21.30;95.30
47765;DHT22;33529;49.242;8.670;2023-04-19T15:50:00;21.10;92.10
47765;DHT22;33529;49.242;8.670;2023-04-19T15:52:27;20.10;87.50
47765;DHT22;33529;49.242;8.670;2023-04-19T15:54:54;18.90;93.00
47765;DHT22;33529;49.242;8.670;2023-04-19T15:57:20;17.80;98.00
47765;DHT22;33529;49.242;8.670;2023-04-19T15:59:47;17.20;96.30
47765;DHT22;33529;49.242;8.670;2023-04-19T16:02:14;16.70;99.90
47765;DHT22;33529;49.242;8.670;2023-04-19T16:04:41;16.30;99.90
47765;DHT22;33529;49.242;8.670;2023-04-19T16:07:08;16.00;98.10
47765;DHT22;33529;49.242;8.670;2023-04-19T16:09:38;15.70;99.90
47765;DHT22;33529;49.242;8.670;2023-04-19T16:12:05;15.50;99.90
47765;DHT22;33529;49.242;8.670;2023-04-19T16:14:31;15.30;99.90
47765;DHT22;33529;49.242;8.670;2023-04-19T16:16:58;14.90;99.30